sensor_id;sensor_type;location;lat;lon;timestamp;pressure;altitude;pressure_sealevel;temperature;humidity
77482;BME280;66582;43.004;-75.010;2023-05-20T00:01:47;100493.00;;;23.62;33.14
77482;BME280;66582;43.004;-75.010;2023-05-20T00:04:13;100488.51;;;22.17;35.75
77482;BME280;66582;43.004;-75.010;2023-05-20T00:06:39;100484.14;;;22.30;35.86
77482;BME280;66582;43.004;-75.010;2023-05-20T00:09:04;100485.35;;;23.25;34.45
77482;BME280;66582;43.004;-75.010;2023-05-20T00:11:30;100492.47;;;21.53;38.49
77482;BME280;66582;43.004;-75.010;2023-05-20T00:13:56;100489.90;;;22.33;36.80
77482;BME280;66582;43.004;-75.010;2023-05-20T00:16:22;100490.15;;;21.98;36.08
77482;BME280;66582;43.004;-75.010;2023-05-20T00:18:46;100494.49;;;22.59;35.91
77482;BME280;66582;43.004;-75.010;2023-05-20T00:21:11;100490.49;;;23.47;34.60
77482;BME280;66582;43.004;-75.010;2023-05-20T00:23:36;100489.80;;;24.23;34.58
77482;BME280;66582;43.004;-75.010;2023-05-20T00:26:02;100498.35;;;24.75;32.45
77482;BME280;66582;43.004;-75.010;2023-05-20T00:28:28;100507.15;;;24.56;33.78
77482;BME280;66582;43.004;-75.010;2023-05-20T00:30:53;100505.45;;;25.16;32.80
77482;BME280;66582;43.004;-75.010;2023-05-20T00:33:17;100498.83;;;26.02;30.51
77482;BME280;66582;43.004;-75.010;2023-05-20T00:35:43;100497.89;;;26.16;30.23
77482;BME280;66582;43.004;-75.010;2023-05-20T00:38:08;100512.29;;;24.09;34.73
77482;BME280;66582;43.004;-75.010;2023-05-20T00:40:33;100510.09;;;22.48;35.77
77482;BME280;66582;43.004;-75.010;2023-05-20T00:42:59;100515.19;;;24.14;34.28
77482;BME280;66582;43.004;-75.010;2023-05-20T00:45:24;100521.67;;;23.48;35.94
77482;BME280;66582;43.004;-75.010;2023-05-20T00:47:50;100525.47;;;24.31;34.64
77482;BME280;66582;43.004;-75.010;2023-05-20T00:50:15;100527.20;;;23.04;36.24
77482;BME280;66582;43.004;-75.010;2023-05-20T00:52:40;100527.98;;;21.57;37.84
77482;BME280;66582;43.004;-75.010;2023-05-20T00:55:07;100531.19;;;20.29;41.75
77482;BME280;66582;43.004;-75.010;2023-05-20T00:57:31;100532.18;;;20.57;42.88
77482;BME280;66582;43.004;-75.010;2023-05-20T00:59:56;100525.53;;;21.13;42.04
77482;BME280;66582;43.004;-75.010;2023-05-20T01:02:23;100521.09;;;21.31;41.22
77482;BME280;66582;43.004;-75.010;2023-05-20T01:04:48;100519.14;;;20.67;43.14
77482;BME280;66582;43.004;-75.010;2023-05-20T01:07:15;100512.18;;;21.91;41.36
77482;BME280;66582;43.004;-75.010;2023-05-20T01:09:38;100512.87;;;21.86;40.74
77482;BME280;66582;43.004;-75.010;2023-05-20T01:12:08;100522.55;;;20.18;40.74
77482;BME280;66582;43.004;-75.010;2023-05-20T01:14:31;100525.26;;;19.88;44.75
77482;BME280;66582;43.004;-75.010;2023-05-20T01:16:56;100527.89;;;20.59;43.36
77482;BME280;66582;43.004;-75.010;2023-05-20T01:19:26;100526.42;;;21.94;39.60
77482;BME280;66582;43.004;-75.010;2023-05-20T01:21:45;100528.94;;;22.93;38.47
77482;BME280;66582;43.004;-75.010;2023-05-20T01:24:11;100531.99;;;22.90;37.99
77482;BME280;66582;43.004;-75.010;2023-05-20T01:26:36;100528.21;;;23.12;38.27
77482;BME280;66582;43.004;-75.010;2023-05-20T01:29:02;100526.47;;;22.33;39.12
77482;BME280;66582;43.004;-75.010;2023-05-20T01:31:31;100525.48;;;22.44;37.95
77482;BME280;66582;43.004;-75.010;2023-05-20T01:33:55;100528.74;;;21.12;41.81
77482;BME280;66582;43.004;-75.010;2023-05-20T01:36:19;100527.44;;;21.37;40.20
77482;BME280;66582;43.004;-75.010;2023-05-20T01:38:43;100524.54;;;22.81;37.66
77482;BME280;66582;43.004;-75.010;2023-05-20T01:41:09;100521.23;;;22.90;37.13
77482;BME280;66582;43.004;-75.010;2023-05-20T01:43:37;100521.06;;;21.43;38.67
77482;BME280;66582;43.004;-75.010;2023-05-20T01:46:00;100517.94;;;22.45;37.33
77482;BME280;66582;43.004;-75.010;2023-05-20T01:48:25;100512.62;;;23.53;35.88
77482;BME280;66582;43.004;-75.010;2023-05-20T01:50:52;100516.30;;;23.37;35.33
77482;BME280;66582;43.004;-75.010;2023-05-20T01:53:17;100521.42;;;23.65;34.55
77482;BME280;66582;43.004;-75.010;2023-05-20T01:55:43;100525.84;;;23.57;36.64
77482;BME280;66582;43.004;-75.010;2023-05-20T01:58:08;100527.37;;;23.13;38.31
77482;BME280;66582;43.004;-75.010;2023-05-20T02:00:33;100525.39;;;23.16;36.69
77482;BME280;66582;43.004;-75.010;2023-05-20T02:02:59;100530.33;;;21.16;41.09
77482;BME280;66582;43.004;-75.010;2023-05-20T02:05:23;100516.41;;;21.90;41.04
77482;BME280;66582;43.004;-75.010;2023-05-20T02:07:49;100516.63;;;21.41;39.56
77482;BME280;66582;43.004;-75.010;2023-05-20T02:10:15;100507.80;;;22.52;40.18
77482;BME280;66582;43.004;-75.010;2023-05-20T02:12:41;100505.97;;;22.06;37.61
77482;BME280;66582;43.004;-75.010;2023-05-20T02:15:08;100502.54;;;21.61;37.74
77482;BME280;66582;43.004;-75.010;2023-05-20T02:17:31;100504.60;;;21.00;38.45
77482;BME280;66582;43.004;-75.010;2023-05-20T02:19:56;100513.27;;;19.60;41.82
77482;BME280;66582;43.004;-75.010;2023-05-20T02:22:22;100515.51;;;20.48;39.41
77482;BME280;66582;43.004;-75.010;2023-05-20T02:24:46;100513.62;;;22.27;37.73
77482;BME280;66582;43.004;-75.010;2023-05-20T02:27:13;100519.31;;;21.38;40.90
77482;BME280;66582;43.004;-75.010;2023-05-20T02:29:37;100527.22;;;18.81;45.74
77482;BME280;66582;43.004;-75.010;2023-05-20T02:32:05;100518.09;;;19.82;43.39
77482;BME280;66582;43.004;-75.010;2023-05-20T02:34:30;100523.07;;;18.01;46.86
77482;BME280;66582;43.004;-75.010;2023-05-20T02:36:54;100508.76;;;20.01;43.41
77482;BME280;66582;43.004;-75.010;2023-05-20T02:39:19;100501.54;;;19.29;43.56
77482;BME280;66582;43.004;-75.010;2023-05-20T02:41:44;100498.92;;;19.70;41.55
77482;BME280;66582;43.004;-75.010;2023-05-20T02:44:10;100502.80;;;20.10;40.11
77482;BME280;66582;43.004;-75.010;2023-05-20T02:46:35;100498.04;;;19.30;42.14
77482;BME280;66582;43.004;-75.010;2023-05-20T02:49:01;100487.13;;;19.94;41.20
77482;BME280;66582;43.004;-75.010;2023-05-20T02:51:26;100488.15;;;20.16;40.83
77482;BME280;66582;43.004;-75.010;2023-05-20T02:53:51;100495.05;;;17.80;44.11
77482;BME280;66582;43.004;-75.010;2023-05-20T02:56:16;100486.51;;;19.55;40.92
77482;BME280;66582;43.004;-75.010;2023-05-20T02:58:42;100484.94;;;21.66;37.54
77482;BME280;66582;43.004;-75.010;2023-05-20T03:01:06;100484.16;;;20.97;37.86
77482;BME280;66582;43.004;-75.010;2023-05-20T03:03:32;100482.08;;;20.72;36.78
77482;BME280;66582;43.004;-75.010;2023-05-20T03:05:57;100481.58;;;21.57;36.34
77482;BME280;66582;43.004;-75.010;2023-05-20T03:08:23;100490.96;;;21.12;35.86
77482;BME280;66582;43.004;-75.010;2023-05-20T03:10:47;100489.07;;;18.46;42.18
77482;BME280;66582;43.004;-75.010;2023-05-20T03:13:13;100483.61;;;19.83;39.98
77482;BME280;66582;43.004;-75.010;2023-05-20T03:15:39;100487.36;;;20.32;38.10
77482;BME280;66582;43.004;-75.010;2023-05-20T03:18:04;100482.32;;;20.18;38.61
77482;BME280;66582;43.004;-75.010;2023-05-20T03:20:30;100478.00;;;21.23;36.73
77482;BME280;66582;43.004;-75.010;2023-05-20T03:22:54;100472.85;;;22.65;34.17
77482;BME280;66582;43.004;-75.010;2023-05-20T03:25:21;100471.78;;;21.87;34.85
77482;BME280;66582;43.004;-75.010;2023-05-20T03:27:45;100480.64;;;22.73;33.33
77482;BME280;66582;43.004;-75.010;2023-05-20T03:30:10;100483.27;;;22.86;33.22
77482;BME280;66582;43.004;-75.010;2023-05-20T03:32:35;100492.30;;;22.56;33.03
77482;BME280;66582;43.004;-75.010;2023-05-20T03:35:01;100492.79;;;23.20;32.86
77482;BME280;66582;43.004;-75.010;2023-05-20T03:37:26;100492.55;;;22.85;33.82
77482;BME280;66582;43.004;-75.010;2023-05-20T03:39:51;100493.67;;;21.60;35.83
77482;BME280;66582;43.004;-75.010;2023-05-20T03:42:16;100497.02;;;22.13;34.80
77482;BME280;66582;43.004;-75.010;2023-05-20T03:44:43;100504.59;;;22.47;35.31
77482;BME280;66582;43.004;-75.010;2023-05-20T03:47:07;100498.37;;;22.56;35.65
77482;BME280;66582;43.004;-75.010;2023-05-20T03:49:32;100508.79;;;19.91;39.17
77482;BME280;66582;43.004;-75.010;2023-05-20T03:51:58;100496.91;;;22.18;34.89
77482;BME280;66582;43.004;-75.010;2023-05-20T03:54:23;100491.59;;;22.44;33.76
77482;BME280;66582;43.004;-75.010;2023-05-20T03:56:48;100496.98;;;21.11;37.07
77482;BME280;66582;43.004;-75.010;2023-05-20T03:59:14;100494.82;;;20.63;38.28
77482;BME280;66582;43.004;-75.010;2023-05-20T04:01:39;100488.63;;;22.32;35.81
77482;BME280;66582;43.004;-75.010;2023-05-20T04:04:04;100491.91;;;21.82;36.75
77482;BME280;66582;43.004;-75.010;2023-05-20T04:06:30;100493.79;;;21.86;36.10
77482;BME280;66582;43.004;-75.010;2023-05-20T04:08:54;100500.10;;;20.40;35.98
77482;BME280;66582;43.004;-75.010;2023-05-20T04:11:20;100500.26;;;22.37;35.34
77482;BME280;66582;43.004;-75.010;2023-05-20T04:13:46;100502.63;;;21.90;36.62
77482;BME280;66582;43.004;-75.010;2023-05-20T04:16:10;100503.93;;;22.27;35.47
77482;BME280;66582;43.004;-75.010;2023-05-20T04:18:36;100503.74;;;23.13;33.26
77482;BME280;66582;43.004;-75.010;2023-05-20T04:21:01;100506.07;;;22.11;36.35
77482;BME280;66582;43.004;-75.010;2023-05-20T04:23:27;100514.69;;;18.68;40.02
77482;BME280;66582;43.004;-75.010;2023-05-20T04:25:51;100506.91;;;20.05;38.41
77482;BME280;66582;43.004;-75.010;2023-05-20T04:28:17;100503.99;;;19.03;39.67
77482;BME280;66582;43.004;-75.010;2023-05-20T04:30:42;100498.98;;;21.55;36.27
77482;BME280;66582;43.004;-75.010;2023-05-20T04:33:07;100498.76;;;20.55;36.48
77482;BME280;66582;43.004;-75.010;2023-05-20T04:35:33;100493.11;;;18.79;40.55
77482;BME280;66582;43.004;-75.010;2023-05-20T04:37:59;100482.04;;;21.00;36.43
77482;BME280;66582;43.004;-75.010;2023-05-20T04:40:23;100484.14;;;19.39;38.81
77482;BME280;66582;43.004;-75.010;2023-05-20T04:42:49;100485.96;;;20.39;36.85
77482;BME280;66582;43.004;-75.010;2023-05-20T04:45:15;100489.12;;;20.23;37.24
77482;BME280;66582;43.004;-75.010;2023-05-20T04:47:39;100487.53;;;19.06;38.94
77482;BME280;66582;43.004;-75.010;2023-05-20T04:50:06;100492.43;;;20.04;37.43
77482;BME280;66582;43.004;-75.010;2023-05-20T04:52:30;100500.59;;;18.61;39.85
77482;BME280;66582;43.004;-75.010;2023-05-20T04:54:55;100498.86;;;18.80;39.25
77482;BME280;66582;43.004;-75.010;2023-05-20T04:57:20;100499.67;;;17.80;41.54
77482;BME280;66582;43.004;-75.010;2023-05-20T04:59:45;100483.43;;;18.74;41.72
77482;BME280;66582;43.004;-75.010;2023-05-20T05:02:11;100485.34;;;20.20;37.75
77482;BME280;66582;43.004;-75.010;2023-05-20T05:04:36;100476.86;;;20.86;35.78
77482;BME280;66582;43.004;-75.010;2023-05-20T05:07:01;100484.58;;;18.45;38.49
77482;BME280;66582;43.004;-75.010;2023-05-20T05:09:26;100493.01;;;18.39;39.67
77482;BME280;66582;43.004;-75.010;2023-05-20T05:11:52;100501.37;;;17.31;43.62
77482;BME280;66582;43.004;-75.010;2023-05-20T05:14:17;100496.82;;;18.14;41.79
77482;BME280;66582;43.004;-75.010;2023-05-20T05:16:43;100488.69;;;19.47;39.27
77482;BME280;66582;43.004;-75.010;2023-05-20T05:19:08;100488.60;;;19.61;38.14
77482;BME280;66582;43.004;-75.010;2023-05-20T05:21:33;100495.33;;;19.38;40.34
77482;BME280;66582;43.004;-75.010;2023-05-20T05:23:58;100499.48;;;19.59;38.49
77482;BME280;66582;43.004;-75.010;2023-05-20T05:26:23;100492.56;;;21.28;35.13
77482;BME280;66582;43.004;-75.010;2023-05-20T05:28:49;100492.10;;;21.50;36.29
77482;BME280;66582;43.004;-75.010;2023-05-20T05:31:15;100494.88;;;18.02;40.63
77482;BME280;66582;43.004;-75.010;2023-05-20T05:33:40;100489.95;;;20.03;37.86
77482;BME280;66582;43.004;-75.010;2023-05-20T05:36:06;100485.80;;;19.27;38.45
77482;BME280;66582;43.004;-75.010;2023-05-20T05:38:31;100493.01;;;16.72;46.25
77482;BME280;66582;43.004;-75.010;2023-05-20T05:40:56;100484.50;;;17.08;44.66
77482;BME280;66582;43.004;-75.010;2023-05-20T05:43:21;100478.86;;;17.67;43.63
77482;BME280;66582;43.004;-75.010;2023-05-20T05:45:46;100478.69;;;18.10;42.84
77482;BME280;66582;43.004;-75.010;2023-05-20T05:48:12;100479.18;;;18.30;42.04
77482;BME280;66582;43.004;-75.010;2023-05-20T05:50:37;100481.16;;;18.04;42.16
77482;BME280;66582;43.004;-75.010;2023-05-20T05:53:03;100489.89;;;16.53;45.34
77482;BME280;66582;43.004;-75.010;2023-05-20T05:55:28;100481.91;;;17.39;45.07
77482;BME280;66582;43.004;-75.010;2023-05-20T05:57:52;100480.69;;;17.95;43.34
77482;BME280;66582;43.004;-75.010;2023-05-20T06:00:18;100479.08;;;19.45;40.62
77482;BME280;66582;43.004;-75.010;2023-05-20T06:02:43;100493.90;;;16.80;44.17
77482;BME280;66582;43.004;-75.010;2023-05-20T06:05:09;100489.75;;;18.27;43.02
77482;BME280;66582;43.004;-75.010;2023-05-20T06:07:35;100490.21;;;18.11;41.86
77482;BME280;66582;43.004;-75.010;2023-05-20T06:10:00;100494.77;;;16.53;46.03
77482;BME280;66582;43.004;-75.010;2023-05-20T06:12:24;100491.18;;;17.91;42.73
77482;BME280;66582;43.004;-75.010;2023-05-20T06:14:50;100488.93;;;18.07;43.00
77482;BME280;66582;43.004;-75.010;2023-05-20T06:17:15;100491.84;;;16.45;45.64
77482;BME280;66582;43.004;-75.010;2023-05-20T06:19:41;100490.10;;;16.02;47.67
77482;BME280;66582;43.004;-75.010;2023-05-20T06:22:06;100489.47;;;15.66;48.87
77482;BME280;66582;43.004;-75.010;2023-05-20T06:24:31;100488.25;;;16.36;46.49
77482;BME280;66582;43.004;-75.010;2023-05-20T06:26:56;100482.22;;;17.91;43.58
77482;BME280;66582;43.004;-75.010;2023-05-20T06:29:22;100484.17;;;16.46;47.02
77482;BME280;66582;43.004;-75.010;2023-05-20T06:31:46;100484.51;;;14.68;51.98
77482;BME280;66582;43.004;-75.010;2023-05-20T06:34:12;100477.76;;;14.48;52.97
77482;BME280;66582;43.004;-75.010;2023-05-20T06:36:37;100473.26;;;16.11;49.01
77482;BME280;66582;43.004;-75.010;2023-05-20T06:39:03;100468.88;;;15.28;51.48
77482;BME280;66582;43.004;-75.010;2023-05-20T06:41:28;100468.61;;;14.78;52.79
77482;BME280;66582;43.004;-75.010;2023-05-20T06:43:53;100468.55;;;16.05;48.96
77482;BME280;66582;43.004;-75.010;2023-05-20T06:46:18;100460.08;;;17.14;46.77
77482;BME280;66582;43.004;-75.010;2023-05-20T06:48:44;100464.56;;;15.72;48.63
77482;BME280;66582;43.004;-75.010;2023-05-20T06:51:09;100457.58;;;17.04;46.33
77482;BME280;66582;43.004;-75.010;2023-05-20T06:53:34;100449.12;;;16.90;46.51
77482;BME280;66582;43.004;-75.010;2023-05-20T06:56:00;100446.14;;;17.15;45.18
77482;BME280;66582;43.004;-75.010;2023-05-20T06:58:24;100440.29;;;17.07;46.00
77482;BME280;66582;43.004;-75.010;2023-05-20T07:00:50;100445.26;;;15.49;49.46
77482;BME280;66582;43.004;-75.010;2023-05-20T07:03:15;100445.57;;;17.14;46.05
77482;BME280;66582;43.004;-75.010;2023-05-20T07:05:40;100446.90;;;16.40;47.99
77482;BME280;66582;43.004;-75.010;2023-05-20T07:08:06;100447.61;;;16.27;47.47
77482;BME280;66582;43.004;-75.010;2023-05-20T07:10:31;100432.65;;;18.62;43.85
77482;BME280;66582;43.004;-75.010;2023-05-20T07:12:57;100436.94;;;16.39;46.15
77482;BME280;66582;43.004;-75.010;2023-05-20T07:15:22;100430.30;;;17.82;44.06
77482;BME280;66582;43.004;-75.010;2023-05-20T07:17:47;100429.35;;;17.56;45.06
77482;BME280;66582;43.004;-75.010;2023-05-20T07:20:12;100428.60;;;16.85;45.57
77482;BME280;66582;43.004;-75.010;2023-05-20T07:22:37;100427.22;;;17.36;44.71
77482;BME280;66582;43.004;-75.010;2023-05-20T07:25:04;100428.84;;;14.98;51.66
77482;BME280;66582;43.004;-75.010;2023-05-20T07:27:28;100433.23;;;15.23;51.74
77482;BME280;66582;43.004;-75.010;2023-05-20T07:29:53;100428.78;;;16.77;47.70
77482;BME280;66582;43.004;-75.010;2023-05-20T07:32:18;100426.24;;;18.84;43.37
77482;BME280;66582;43.004;-75.010;2023-05-20T07:34:45;100432.66;;;17.14;45.70
77482;BME280;66582;43.004;-75.010;2023-05-20T07:37:08;100426.32;;;18.21;44.33
77482;BME280;66582;43.004;-75.010;2023-05-20T07:39:34;100422.58;;;18.92;42.27
77482;BME280;66582;43.004;-75.010;2023-05-20T07:42:00;100423.49;;;19.95;40.32
77482;BME280;66582;43.004;-75.010;2023-05-20T07:44:24;100422.75;;;18.97;41.09
77482;BME280;66582;43.004;-75.010;2023-05-20T07:46:49;100422.08;;;17.58;43.93
77482;BME280;66582;43.004;-75.010;2023-05-20T07:49:15;100420.19;;;17.23;46.03
77482;BME280;66582;43.004;-75.010;2023-05-20T07:51:40;100427.34;;;14.92;52.02
77482;BME280;66582;43.004;-75.010;2023-05-20T07:54:05;100416.99;;;17.19;47.93
77482;BME280;66582;43.004;-75.010;2023-05-20T07:56:30;100416.99;;;16.89;46.97
77482;BME280;66582;43.004;-75.010;2023-05-20T07:58:58;100426.46;;;16.54;48.51
77482;BME280;66582;43.004;-75.010;2023-05-20T08:01:21;100423.95;;;17.55;45.88
77482;BME280;66582;43.004;-75.010;2023-05-20T08:03:46;100417.92;;;17.31;46.45
77482;BME280;66582;43.004;-75.010;2023-05-20T08:06:11;100416.82;;;16.78;46.00
77482;BME280;66582;43.004;-75.010;2023-05-20T08:08:36;100417.96;;;17.67;45.36
77482;BME280;66582;43.004;-75.010;2023-05-20T08:11:01;100422.06;;;16.83;47.38
77482;BME280;66582;43.004;-75.010;2023-05-20T08:13:27;100412.59;;;18.75;43.22
77482;BME280;66582;43.004;-75.010;2023-05-20T08:15:53;100421.68;;;17.40;45.89
77482;BME280;66582;43.004;-75.010;2023-05-20T08:18:18;100424.15;;;17.87;45.51
77482;BME280;66582;43.004;-75.010;2023-05-20T08:20:43;100419.69;;;17.69;44.40
77482;BME280;66582;43.004;-75.010;2023-05-20T08:23:09;100417.89;;;18.10;43.40
77482;BME280;66582;43.004;-75.010;2023-05-20T08:25:33;100418.22;;;18.09;42.73
77482;BME280;66582;43.004;-75.010;2023-05-20T08:28:01;100420.09;;;17.49;45.27
77482;BME280;66582;43.004;-75.010;2023-05-20T08:30:24;100417.63;;;16.56;46.70
77482;BME280;66582;43.004;-75.010;2023-05-20T08:32:50;100422.68;;;15.09;51.35
77482;BME280;66582;43.004;-75.010;2023-05-20T08:35:15;100409.58;;;17.38;48.52
77482;BME280;66582;43.004;-75.010;2023-05-20T08:37:40;100418.58;;;15.66;49.78
77482;BME280;66582;43.004;-75.010;2023-05-20T08:40:06;100421.57;;;14.32;54.61
77482;BME280;66582;43.004;-75.010;2023-05-20T08:42:31;100418.37;;;15.35;52.21
77482;BME280;66582;43.004;-75.010;2023-05-20T08:44:57;100408.10;;;18.29;46.04
77482;BME280;66582;43.004;-75.010;2023-05-20T08:47:21;100405.23;;;18.59;44.12
77482;BME280;66582;43.004;-75.010;2023-05-20T08:49:46;100414.50;;;16.56;47.91
77482;BME280;66582;43.004;-75.010;2023-05-20T08:52:12;100411.32;;;16.00;50.72
77482;BME280;66582;43.004;-75.010;2023-05-20T08:54:42;100398.01;;;17.12;48.33
77482;BME280;66582;43.004;-75.010;2023-05-20T08:57:02;100411.64;;;13.67;59.26
77482;BME280;66582;43.004;-75.010;2023-05-20T08:59:28;100400.49;;;16.22;53.36
77482;BME280;66582;43.004;-75.010;2023-05-20T09:01:53;100391.39;;;17.21;49.87
77482;BME280;66582;43.004;-75.010;2023-05-20T09:04:18;100391.77;;;17.25;48.19
77482;BME280;66582;43.004;-75.010;2023-05-20T09:06:45;100387.04;;;18.17;47.00
77482;BME280;66582;43.004;-75.010;2023-05-20T09:09:10;100385.26;;;18.14;45.37
77482;BME280;66582;43.004;-75.010;2023-05-20T09:11:39;100383.44;;;19.02;44.87
77482;BME280;66582;43.004;-75.010;2023-05-20T09:13:59;100388.98;;;17.57;45.71
77482;BME280;66582;43.004;-75.010;2023-05-20T09:16:25;100392.96;;;17.16;47.77
77482;BME280;66582;43.004;-75.010;2023-05-20T09:18:54;100393.13;;;16.43;49.24
77482;BME280;66582;43.004;-75.010;2023-05-20T09:21:15;100387.38;;;17.33;47.51
77482;BME280;66582;43.004;-75.010;2023-05-20T09:23:46;100382.02;;;18.08;45.20
77482;BME280;66582;43.004;-75.010;2023-05-20T09:26:06;100385.70;;;18.59;44.79
77482;BME280;66582;43.004;-75.010;2023-05-20T09:28:31;100382.58;;;18.54;44.89
77482;BME280;66582;43.004;-75.010;2023-05-20T09:30:58;100386.50;;;17.86;45.64
77482;BME280;66582;43.004;-75.010;2023-05-20T09:33:26;100396.75;;;15.62;52.17
77482;BME280;66582;43.004;-75.010;2023-05-20T09:35:48;100397.10;;;14.59;56.57
77482;BME280;66582;43.004;-75.010;2023-05-20T09:38:12;100396.53;;;16.25;52.24
77482;BME280;66582;43.004;-75.010;2023-05-20T09:40:37;100384.21;;;17.13;49.52
77482;BME280;66582;43.004;-75.010;2023-05-20T09:43:04;100383.19;;;17.22;50.08
77482;BME280;66582;43.004;-75.010;2023-05-20T09:45:28;100384.93;;;17.54;48.35
77482;BME280;66582;43.004;-75.010;2023-05-20T09:47:54;100384.62;;;15.38;53.71
77482;BME280;66582;43.004;-75.010;2023-05-20T09:50:19;100385.26;;;16.24;52.03
77482;BME280;66582;43.004;-75.010;2023-05-20T09:52:43;100378.86;;;17.49;48.95
77482;BME280;66582;43.004;-75.010;2023-05-20T09:55:09;100382.56;;;17.15;48.92
77482;BME280;66582;43.004;-75.010;2023-05-20T09:57:34;100383.69;;;15.43;53.60
77482;BME280;66582;43.004;-75.010;2023-05-20T09:59:59;100389.50;;;15.25;55.87
77482;BME280;66582;43.004;-75.010;2023-05-20T10:02:24;100391.10;;;15.68;53.09
77482;BME280;66582;43.004;-75.010;2023-05-20T10:04:51;100392.22;;;15.94;53.74
77482;BME280;66582;43.004;-75.010;2023-05-20T10:07:25;100389.28;;;17.05;50.53
77482;BME280;66582;43.004;-75.010;2023-05-20T10:09:52;100388.43;;;17.89;48.27
77482;BME280;66582;43.004;-75.010;2023-05-20T10:12:12;100388.94;;;16.86;49.99
77482;BME280;66582;43.004;-75.010;2023-05-20T10:14:47;100391.51;;;17.01;50.15
77482;BME280;66582;43.004;-75.010;2023-05-20T10:17:02;100399.57;;;14.96;55.47
77482;BME280;66582;43.004;-75.010;2023-05-20T10:19:27;100395.88;;;16.49;51.96
77482;BME280;66582;43.004;-75.010;2023-05-20T10:21:56;100392.30;;;17.12;50.63
77482;BME280;66582;43.004;-75.010;2023-05-20T10:24:11;100392.31;;;17.23;49.64
77482;BME280;66582;43.004;-75.010;2023-05-20T10:26:37;100390.83;;;18.51;47.26
77482;BME280;66582;43.004;-75.010;2023-05-20T10:29:01;100390.59;;;17.58;48.39
77482;BME280;66582;43.004;-75.010;2023-05-20T10:31:26;100386.86;;;18.23;45.59
77482;BME280;66582;43.004;-75.010;2023-05-20T10:33:53;100388.71;;;17.69;47.03
77482;BME280;66582;43.004;-75.010;2023-05-20T10:36:25;100387.62;;;16.79;48.94
77482;BME280;66582;43.004;-75.010;2023-05-20T10:38:50;100389.29;;;17.41;48.78
77482;BME280;66582;43.004;-75.010;2023-05-20T10:41:09;100403.76;;;13.74;59.47
77482;BME280;66582;43.004;-75.010;2023-05-20T10:43:33;100405.72;;;15.79;55.22
77482;BME280;66582;43.004;-75.010;2023-05-20T10:45:58;100401.61;;;16.25;53.01
77482;BME280;66582;43.004;-75.010;2023-05-20T10:48:26;100404.09;;;17.14;51.06
77482;BME280;66582;43.004;-75.010;2023-05-20T10:50:49;100406.75;;;17.30;50.14
77482;BME280;66582;43.004;-75.010;2023-05-20T10:53:14;100406.59;;;16.82;51.17
77482;BME280;66582;43.004;-75.010;2023-05-20T10:55:45;100410.16;;;17.16;50.22
77482;BME280;66582;43.004;-75.010;2023-05-20T10:58:05;100412.92;;;17.62;49.87
77482;BME280;66582;43.004;-75.010;2023-05-20T11:00:30;100408.38;;;17.40;49.75
77482;BME280;66582;43.004;-75.010;2023-05-20T11:02:55;100396.92;;;17.55;48.81
77482;BME280;66582;43.004;-75.010;2023-05-20T11:05:21;100403.39;;;17.55;49.73
77482;BME280;66582;43.004;-75.010;2023-05-20T11:07:45;100404.49;;;17.92;49.27
77482;BME280;66582;43.004;-75.010;2023-05-20T11:10:11;100404.99;;;16.36;52.81
77482;BME280;66582;43.004;-75.010;2023-05-20T11:12:36;100394.55;;;17.91;49.26
77482;BME280;66582;43.004;-75.010;2023-05-20T11:15:02;100397.80;;;18.03;48.51
77482;BME280;66582;43.004;-75.010;2023-05-20T11:17:27;100405.80;;;19.05;45.75
77482;BME280;66582;43.004;-75.010;2023-05-20T11:19:52;100406.70;;;18.44;46.99
77482;BME280;66582;43.004;-75.010;2023-05-20T11:22:17;100397.17;;;18.11;47.91
77482;BME280;66582;43.004;-75.010;2023-05-20T11:24:43;100407.54;;;16.39;50.38
77482;BME280;66582;43.004;-75.010;2023-05-20T11:27:08;100404.65;;;17.17;50.97
77482;BME280;66582;43.004;-75.010;2023-05-20T11:29:33;100400.93;;;16.15;53.52
77482;BME280;66582;43.004;-75.010;2023-05-20T11:31:59;100406.09;;;16.00;52.73
77482;BME280;66582;43.004;-75.010;2023-05-20T11:34:24;100416.53;;;15.03;59.66
77482;BME280;66582;43.004;-75.010;2023-05-20T11:36:55;100421.67;;;16.21;54.25
77482;BME280;66582;43.004;-75.010;2023-05-20T11:39:14;100414.37;;;16.80;53.42
77482;BME280;66582;43.004;-75.010;2023-05-20T11:41:42;100415.47;;;13.32;61.50
77482;BME280;66582;43.004;-75.010;2023-05-20T11:44:09;100413.82;;;15.91;56.83
77482;BME280;66582;43.004;-75.010;2023-05-20T11:46:31;100408.90;;;16.14;54.10
77482;BME280;66582;43.004;-75.010;2023-05-20T11:48:56;100409.63;;;16.63;53.96
77482;BME280;66582;43.004;-75.010;2023-05-20T11:51:26;100409.27;;;16.02;54.04
77482;BME280;66582;43.004;-75.010;2023-05-20T11:53:47;100412.91;;;15.89;55.87
77482;BME280;66582;43.004;-75.010;2023-05-20T11:56:11;100413.64;;;16.54;53.23
77482;BME280;66582;43.004;-75.010;2023-05-20T11:58:36;100412.06;;;16.10;54.85
77482;BME280;66582;43.004;-75.010;2023-05-20T12:01:02;100403.02;;;17.04;53.02
77482;BME280;66582;43.004;-75.010;2023-05-20T12:03:27;100413.65;;;16.66;53.03
77482;BME280;66582;43.004;-75.010;2023-05-20T12:05:53;100412.16;;;16.55;54.39
77482;BME280;66582;43.004;-75.010;2023-05-20T12:08:18;100397.39;;;17.48;51.83
77482;BME280;66582;43.004;-75.010;2023-05-20T12:10:43;100395.38;;;17.32;52.05
77482;BME280;66582;43.004;-75.010;2023-05-20T12:13:08;100394.77;;;16.64;54.24
77482;BME280;66582;43.004;-75.010;2023-05-20T12:15:33;100383.42;;;17.58;51.27
77482;BME280;66582;43.004;-75.010;2023-05-20T12:17:58;100390.47;;;17.43;51.41
77482;BME280;66582;43.004;-75.010;2023-05-20T12:20:25;100387.12;;;16.11;54.87